createdAt,value
2022-10-10T00:00:59.975Z,96959.66
2022-10-10T00:03:27.264Z,96960.38
2022-10-10T00:05:54.339Z,96954.81
2022-10-10T00:08:21.330Z,96946.88
2022-10-10T00:10:48.466Z,96954.38
2022-10-10T00:13:15.937Z,96945.16
2022-10-10T00:15:46.798Z,96943.47
2022-10-10T00:18:16.506Z,96945.63
2022-10-10T00:20:43.408Z,96947.78
2022-10-10T00:23:10.348Z,96950.78
2022-10-10T00:25:38.068Z,96946.66
2022-10-10T00:28:06.104Z,96953.09
2022-10-10T00:30:33.196Z,96935.84
2022-10-10T00:33:01.059Z,96941.78
2022-10-10T00:35:28.527Z,96941.78
2022-10-10T00:37:55.556Z,96939.16
2022-10-10T00:40:23.007Z,96936.91
2022-10-10T00:42:50.310Z,96945.31
2022-10-10T00:45:26.408Z,96942.84
2022-10-10T00:48:00.048Z,96931.88
2022-10-10T00:50:28.717Z,96924.81
2022-10-10T00:52:56.506Z,96931.66
2022-10-10T00:55:23.965Z,96921.72
2022-10-10T00:57:51.616Z,96918.88
2022-10-10T01:00:19.088Z,96921.25
2022-10-10T01:02:46.107Z,96913.97
2022-10-10T01:05:13.116Z,96909.53
2022-10-10T01:07:40.747Z,96902.66
2022-10-10T01:10:16.834Z,96905.06
2022-10-10T01:12:50.153Z,96907.47
2022-10-10T01:15:35.216Z,96902.53
2022-10-10T01:18:10.857Z,96903.81
2022-10-10T01:20:56.056Z,96905.16
2022-10-10T01:23:50.777Z,96910.81
2022-10-10T01:26:34.996Z,96906.34
2022-10-10T01:29:07.897Z,96906.56
2022-10-10T01:31:39.937Z,96911.59
2022-10-10T01:34:18.976Z,96904.72
2022-10-10T01:36:57.121Z,96906.34
2022-10-10T01:39:41.577Z,96900.41
2022-10-10T01:42:19.418Z,96900.63
2022-10-10T01:44:47.558Z,96898.22
2022-10-10T01:47:14.976Z,96899.13
2022-10-10T01:49:45.038Z,96897.91
2022-10-10T01:52:14.940Z,96905.41
2022-10-10T01:55:12.616Z,96898.09
2022-10-10T01:58:14.356Z,96903.69
2022-10-10T02:00:59.285Z,96896.06
2022-10-10T02:03:32.120Z,96897.75
2022-10-10T02:06:18.838Z,96894.34
2022-10-10T02:08:59.258Z,96903.25
2022-10-10T02:11:29.232Z,96890.69
2022-10-10T02:14:21.879Z,96897.66
2022-10-10T02:16:52.216Z,96895.81
2022-10-10T02:19:21.977Z,96895.59
2022-10-10T02:21:52.116Z,96899.25
2022-10-10T02:24:22.140Z,96895.03
2022-10-10T02:26:56.298Z,96898.22
2022-10-10T02:29:29.196Z,96892.16
2022-10-10T02:32:21.197Z,96897.41
2022-10-10T02:34:55.757Z,96889.00
2022-10-10T02:37:24.658Z,96893.78
2022-10-10T02:39:57.897Z,96892.97
2022-10-10T02:42:26.817Z,96884.06
2022-10-10T02:44:55.097Z,96887.06
2022-10-10T02:47:21.976Z,96878.94
2022-10-10T02:49:49.240Z,96885.78
2022-10-10T02:52:17.338Z,96876.88
2022-10-10T02:54:44.458Z,96881.47
2022-10-10T02:57:11.597Z,96882.13
2022-10-10T02:59:38.578Z,96874.59
2022-10-10T03:02:06.617Z,96880.22
2022-10-10T03:04:35.056Z,96878.59
2022-10-10T03:07:03.356Z,96868.69
2022-10-10T03:09:30.257Z,96874.75
2022-10-10T03:11:57.437Z,96864.69
2022-10-10T03:14:24.475Z,96870.38
2022-10-10T03:16:51.556Z,96876.78
2022-10-10T03:19:18.556Z,96872.34
2022-10-10T03:21:45.704Z,96870.75
2022-10-10T03:24:12.677Z,96874.59
2022-10-10T03:26:39.736Z,96875.97
2022-10-10T03:29:06.818Z,96872.13
2022-10-10T03:31:33.836Z,96872.56
2022-10-10T03:34:00.977Z,96876.78
2022-10-10T03:36:28.641Z,96877.22
2022-10-10T03:38:55.638Z,96871.28
2022-10-10T03:41:22.758Z,96874.81
2022-10-10T03:43:49.737Z,96868.44
2022-10-10T03:46:16.805Z,96867.06
2022-10-10T03:48:44.122Z,96861.28
2022-10-10T03:51:11.477Z,96872.31
2022-10-10T03:53:38.677Z,96867.66
2022-10-10T03:56:06.156Z,96869.69
2022-10-10T03:58:33.238Z,96866.28
2022-10-10T04:01:02.473Z,96866.28
2022-10-10T04:03:30.324Z,96874.63
2022-10-10T04:05:57.397Z,96867.06
2022-10-10T04:08:24.996Z,96864.94
2022-10-10T04:10:53.615Z,96860.69
2022-10-10T04:13:21.943Z,96863.53
2022-10-10T04:15:52.956Z,96861.97
2022-10-10T04:18:20.676Z,96867.66
2022-10-10T04:20:47.856Z,96856.72
2022-10-10T04:23:15.111Z,96857.41
2022-10-10T04:25:43.287Z,96848.25
2022-10-10T04:28:15.057Z,96853.63
2022-10-10T04:30:42.426Z,96848.69
2022-10-10T04:33:09.831Z,96852.94
2022-10-10T04:35:37.504Z,96851.09
2022-10-10T04:38:05.381Z,96852.81
2022-10-10T04:40:33.087Z,96857.63
2022-10-10T04:43:00.621Z,96861.16
2022-10-10T04:45:28.017Z,96860.22
2022-10-10T04:47:55.864Z,96847.91
2022-10-10T04:50:24.117Z,96861.38
2022-10-10T04:52:51.483Z,96860.69
2022-10-10T04:55:19.024Z,96860.69
2022-10-10T04:57:46.457Z,96864.66
2022-10-10T05:00:13.929Z,96853.38
2022-10-10T05:02:41.138Z,96856.25
2022-10-10T05:05:08.859Z,96857.16
2022-10-10T05:07:36.056Z,96850.09
2022-10-10T05:10:03.381Z,96854.63
2022-10-10T05:12:30.623Z,96849.97
2022-10-10T05:14:57.819Z,96855.22
2022-10-10T05:17:25.217Z,96850.28
2022-10-10T05:19:52.667Z,96863.19
2022-10-10T05:22:19.898Z,96864.78
2022-10-10T05:24:47.158Z,96867.97
2022-10-10T05:27:14.456Z,96866.19
2022-10-10T05:29:41.701Z,96862.28
2022-10-10T05:32:10.480Z,96871.75
2022-10-10T05:34:38.944Z,96858.63
2022-10-10T05:37:06.179Z,96863.66
2022-10-10T05:39:33.587Z,96864.69
2022-10-10T05:42:00.738Z,96869.72
2022-10-10T05:44:28.104Z,96871.31
2022-10-10T05:46:55.196Z,96861.38
2022-10-10T05:49:22.500Z,96864.00
2022-10-10T05:51:49.700Z,96856.69
2022-10-10T05:54:17.022Z,96864.31
2022-10-10T05:56:44.561Z,96871.19
2022-10-10T05:59:11.782Z,96861.25
2022-10-10T06:01:38.981Z,96868.88
2022-10-10T06:04:06.356Z,96862.38
2022-10-10T06:06:33.703Z,96872.66
2022-10-10T06:09:00.943Z,96871.84
2022-10-10T06:11:28.184Z,96875.84
2022-10-10T06:13:55.784Z,96874.34
2022-10-10T06:16:24.380Z,96870.13
2022-10-10T06:18:52.820Z,96877.06
2022-10-10T06:21:20.383Z,96878.34
2022-10-10T06:23:47.621Z,96874.91
2022-10-10T06:26:15.827Z,96881.78
2022-10-10T06:28:43.002Z,96879.69
2022-10-10T06:31:12.818Z,96877.63
2022-10-10T06:33:42.584Z,96880.63
2022-10-10T06:36:10.789Z,96877.50
2022-10-10T06:38:38.861Z,96883.41
2022-10-10T06:41:07.058Z,96884.22
2022-10-10T06:43:34.339Z,96879.75
2022-10-10T06:46:02.420Z,96888.22
2022-10-10T06:48:35.185Z,96878.03
2022-10-10T06:51:08.620Z,96881.22
2022-10-10T06:53:36.383Z,96887.50
2022-10-10T06:56:04.260Z,96885.09
2022-10-10T06:58:32.501Z,96884.88
2022-10-10T07:01:01.177Z,96880.78
2022-10-10T07:03:30.232Z,96883.84
2022-10-10T07:06:00.937Z,96890.72
2022-10-10T07:08:29.542Z,96891.72
2022-10-10T07:10:57.542Z,96886.81
2022-10-10T07:13:24.818Z,96892.53
2022-10-10T07:15:52.218Z,96890.25
2022-10-10T07:18:20.061Z,96893.53
2022-10-10T07:20:47.743Z,96893.06
2022-10-10T07:23:15.347Z,96904.13
2022-10-10T07:25:43.499Z,96898.75
2022-10-10T07:28:11.205Z,96896.53
2022-10-10T07:30:45.937Z,96898.69
2022-10-10T07:33:14.344Z,96903.47
2022-10-10T07:35:42.224Z,96896.00
2022-10-10T07:38:11.785Z,96904.78
2022-10-10T07:40:41.909Z,96901.28
2022-10-10T07:43:09.313Z,96900.38
2022-10-10T07:45:37.464Z,96900.00
2022-10-10T07:48:04.822Z,96896.56
2022-10-10T07:50:31.980Z,96900.53
2022-10-10T07:52:59.419Z,96905.91
2022-10-10T07:55:26.901Z,96895.44
2022-10-10T07:57:54.444Z,96896.81
2022-10-10T08:00:22.100Z,96898.16
2022-10-10T08:02:49.337Z,96899.03
2022-10-10T08:05:16.582Z,96901.53
2022-10-10T08:07:43.940Z,96898.97
2022-10-10T08:10:11.104Z,96906.44
2022-10-10T08:12:38.339Z,96903.88
2022-10-10T08:15:07.050Z,96905.53
2022-10-10T08:17:34.540Z,96909.59
2022-10-10T08:20:01.904Z,96909.59
2022-10-10T08:22:29.258Z,96911.03
2022-10-10T08:24:56.461Z,96913.25
2022-10-10T08:27:23.700Z,96909.41
2022-10-10T08:29:51.043Z,96907.94
2022-10-10T08:32:18.384Z,96901.13
2022-10-10T08:34:45.779Z,96900.91
2022-10-10T08:37:13.096Z,96894.72
2022-10-10T08:39:40.360Z,96894.00
2022-10-10T08:42:14.580Z,96887.09
2022-10-10T08:44:56.260Z,96885.94
2022-10-10T08:47:45.577Z,96885.59
2022-10-10T08:50:24.390Z,96883.16
2022-10-10T08:53:00.857Z,96885.56
2022-10-10T08:55:34.057Z,96882.97
2022-10-10T08:58:20.053Z,96881.06
2022-10-10T09:00:50.857Z,96877.91
2022-10-10T09:03:30.944Z,96873.72
2022-10-10T09:06:13.142Z,96879.03
2022-10-10T09:08:54.184Z,96874.88
2022-10-10T09:11:56.822Z,96860.06
2022-10-10T09:14:45.258Z,96864.59
2022-10-10T09:17:31.310Z,96866.13
2022-10-10T09:20:33.699Z,96863.84
2022-10-10T09:23:17.023Z,96862.31
2022-10-10T09:25:53.704Z,96859.47
2022-10-10T09:28:39.284Z,96858.66
2022-10-10T09:31:38.856Z,96873.47
2022-10-10T09:34:15.701Z,96858.00
2022-10-10T09:36:44.621Z,96856.94
2022-10-10T09:39:47.028Z,96856.22
2022-10-10T09:42:16.146Z,96855.53
2022-10-10T09:44:44.185Z,96863.19
2022-10-10T09:47:15.144Z,96842.09
2022-10-10T09:49:44.176Z,96844.50
2022-10-10T09:52:32.298Z,96844.22
2022-10-10T09:55:07.581Z,96846.63
2022-10-10T09:57:39.860Z,96841.34
2022-10-10T10:00:19.264Z,96845.31
2022-10-10T10:02:51.061Z,96839.22
2022-10-10T10:05:26.460Z,96832.28
2022-10-10T10:07:53.979Z,96830.13
2022-10-10T10:10:24.707Z,96832.75
2022-10-10T10:12:52.707Z,96830.31
2022-10-10T10:15:30.096Z,96829.19
2022-10-10T10:18:39.260Z,96823.75
2022-10-10T10:21:12.627Z,96818.84
2022-10-10T10:24:08.744Z,96823.44
2022-10-10T10:26:41.940Z,96812.53
2022-10-10T10:29:32.256Z,96816.84
2022-10-10T10:32:32.898Z,96811.81
2022-10-10T10:35:00.115Z,96808.19
2022-10-10T10:38:04.139Z,96807.88
2022-10-10T10:40:42.661Z,96798.13
2022-10-10T10:43:35.255Z,96807.25
2022-10-10T10:46:30.700Z,96800.09
2022-10-10T10:49:05.457Z,96803.38
2022-10-10T10:51:47.658Z,96803.75
2022-10-10T10:54:40.352Z,96789.75
2022-10-10T10:57:31.775Z,96790.13
2022-10-10T11:00:41.296Z,96791.72
2022-10-10T11:13:31.744Z,96779.78
2022-10-10T11:16:46.966Z,96768.97
2022-10-10T11:19:11.465Z,96770.38
2022-10-10T11:21:46.779Z,96770.44
2022-10-10T11:24:41.899Z,96760.34
2022-10-10T11:27:20.539Z,96754.97
2022-10-10T11:30:13.588Z,96757.44
2022-10-10T11:32:54.303Z,96750.19
2022-10-10T11:36:00.817Z,96739.69
2022-10-10T11:38:47.502Z,96740.16
2022-10-10T11:41:29.338Z,96737.63
2022-10-10T11:44:29.577Z,96730.16
2022-10-10T11:47:06.820Z,96730.09
2022-10-10T11:49:52.261Z,96727.13
2022-10-10T11:52:34.892Z,96727.66
2022-10-10T11:55:20.429Z,96727.91
2022-10-10T11:58:01.259Z,96723.44
2022-10-10T12:00:29.426Z,96713.91
2022-10-10T12:02:57.779Z,96714.44
2022-10-10T12:05:28.737Z,96713.00
2022-10-10T12:08:00.259Z,96701.53
2022-10-10T12:10:35.551Z,96693.84
2022-10-10T12:13:28.981Z,96698.41
2022-10-10T12:15:59.137Z,96702.94
2022-10-10T12:18:29.460Z,96700.56
2022-10-10T12:21:06.620Z,96693.22
2022-10-10T12:23:34.096Z,96694.81
2022-10-10T12:26:01.784Z,96691.03
2022-10-10T12:28:33.977Z,96691.03
2022-10-10T12:31:07.261Z,96680.94
2022-10-10T12:33:34.424Z,96688.47
2022-10-10T12:36:19.981Z,96681.38
2022-10-10T12:39:03.581Z,96677.16
2022-10-10T12:41:47.284Z,96677.34
2022-10-10T12:44:36.106Z,96675.75
2022-10-10T12:47:15.385Z,96674.13
2022-10-10T12:50:01.656Z,96675.25
2022-10-10T12:52:38.376Z,96664.63
2022-10-10T12:55:08.150Z,96661.97
2022-10-10T12:57:43.177Z,96663.84
2022-10-10T13:00:28.096Z,96661.03
2022-10-10T13:03:01.856Z,96661.81
2022-10-10T13:05:36.379Z,96658.09
2022-10-10T13:08:07.462Z,96662.34
2022-10-10T13:10:34.858Z,96659.94
2022-10-10T13:13:28.339Z,96652.09
2022-10-10T13:15:57.986Z,96648.38
2022-10-10T13:18:36.338Z,96650.13
2022-10-10T13:21:06.565Z,96645.66
2022-10-10T13:23:36.697Z,96638.88
2022-10-10T13:26:04.538Z,96631.22
2022-10-10T13:28:31.909Z,96635.16
2022-10-10T13:30:59.601Z,96622.00
2022-10-10T13:33:33.743Z,96621.38
2022-10-10T13:36:07.496Z,96633.84
2022-10-10T13:38:36.146Z,96622.97
2022-10-10T13:41:05.538Z,96628.47
2022-10-10T13:43:33.819Z,96625.13
2022-10-10T13:46:02.416Z,96624.53
2022-10-10T13:48:32.386Z,96622.50
2022-10-10T13:51:06.829Z,96621.63
2022-10-10T13:53:52.503Z,96614.44
2022-10-10T13:56:29.701Z,96615.34
2022-10-10T13:59:04.988Z,96616.91
2022-10-10T14:01:39.208Z,96612.00
2022-10-10T14:04:23.022Z,96611.56
2022-10-10T14:06:56.061Z,96606.47
2022-10-10T14:09:26.098Z,96612.94
2022-10-10T14:11:55.582Z,96612.25
2022-10-10T14:14:48.138Z,96609.88
2022-10-10T14:17:16.219Z,96606.00
2022-10-10T14:19:45.700Z,96612.22
2022-10-10T14:22:13.258Z,96611.34
2022-10-10T14:24:40.817Z,96606.25
2022-10-10T14:27:20.282Z,96608.59
2022-10-10T14:29:48.216Z,96609.44
2022-10-10T14:32:16.300Z,96615.72
2022-10-10T14:34:44.018Z,96618.59
2022-10-10T14:37:26.055Z,96607.81
2022-10-10T14:39:54.310Z,96607.09
2022-10-10T14:42:22.780Z,96602.81
2022-10-10T14:44:50.105Z,96602.72
2022-10-10T14:47:19.658Z,96601.38
2022-10-10T14:49:47.425Z,96600.53
2022-10-10T14:52:15.895Z,96613.19
2022-10-10T14:54:43.261Z,96622.28
2022-10-10T14:57:12.980Z,96606.09
2022-10-10T14:59:47.865Z,96611.41
2022-10-10T15:02:22.271Z,96618.84
2022-10-10T15:04:50.034Z,96616.44
2022-10-10T15:07:18.416Z,96622.91
2022-10-10T15:10:17.559Z,96618.38
2022-10-10T15:12:37.619Z,96618.41
2022-10-10T15:15:06.056Z,96612.22
2022-10-10T15:17:34.771Z,96616.38
2022-10-10T15:20:04.063Z,96613.91
2022-10-10T15:22:31.797Z,96612.41
2022-10-10T15:24:59.181Z,96616.06
2022-10-10T15:27:28.415Z,96623.06
2022-10-10T15:29:55.902Z,96623.16
2022-10-10T15:32:23.203Z,96619.78
2022-10-10T15:34:51.422Z,96622.50
2022-10-10T15:37:19.538Z,96621.56
2022-10-10T15:39:46.696Z,96631.25
2022-10-10T15:42:21.302Z,96628.41
2022-10-10T15:44:50.342Z,96628.56
2022-10-10T15:47:18.621Z,96630.78
2022-10-10T15:49:46.018Z,96635.03
2022-10-10T15:52:13.465Z,96634.06
2022-10-10T15:54:40.864Z,96634.91
2022-10-10T15:57:08.132Z,96634.69
2022-10-10T15:59:37.927Z,96623.13
2022-10-10T16:02:08.017Z,96624.50
2022-10-10T16:04:35.217Z,96630.19
2022-10-10T16:09:49.936Z,96624.94
2022-10-10T16:12:17.230Z,96631.81
2022-10-10T16:14:44.541Z,96630.56
2022-10-10T16:17:22.216Z,96638.78
2022-10-10T16:19:50.624Z,96636.41
2022-10-10T16:22:17.856Z,96632.72
2022-10-10T16:24:58.259Z,96635.91
2022-10-10T16:27:32.456Z,96631.91
2022-10-10T16:29:59.819Z,96626.66
2022-10-10T16:32:26.980Z,96630.88
2022-10-10T16:34:54.145Z,96626.41
2022-10-10T16:37:21.419Z,96631.72
2022-10-10T16:39:48.700Z,96626.72
2022-10-10T16:42:15.936Z,96630.44
2022-10-10T16:44:43.561Z,96633.63
2022-10-10T16:47:10.749Z,96635.75
2022-10-10T16:49:38.098Z,96642.41
2022-10-10T16:52:05.281Z,96646.63
2022-10-10T16:54:32.416Z,96647.69
2022-10-10T16:56:59.581Z,96647.16
2022-10-10T16:59:26.898Z,96649.78
2022-10-10T17:01:54.060Z,96644.75
2022-10-10T17:04:21.985Z,96652.66
2022-10-10T17:06:49.264Z,96657.97
2022-10-10T17:09:17.497Z,96661.13
2022-10-10T17:11:48.106Z,96657.94
2022-10-10T17:14:18.498Z,96660.84
2022-10-10T17:17:10.428Z,96653.16
2022-10-10T17:19:33.177Z,96649.44
2022-10-10T17:22:00.344Z,96651.53
2022-10-10T17:24:28.145Z,96658.91
2022-10-10T17:26:55.942Z,96657.31
2022-10-10T17:29:23.970Z,96659.94
2022-10-10T17:31:51.180Z,96655.41
2022-10-10T17:34:18.586Z,96660.44
2022-10-10T17:36:46.421Z,96656.47
2022-10-10T17:39:13.922Z,96659.09
2022-10-10T17:41:41.476Z,96662.78
2022-10-10T17:44:11.012Z,96666.41
2022-10-10T17:46:39.353Z,96660.84
2022-10-10T17:49:09.298Z,96671.94
2022-10-10T17:51:38.028Z,96669.00
2022-10-10T17:54:06.781Z,96668.72
2022-10-10T17:56:35.000Z,96669.47
2022-10-10T17:59:05.699Z,96667.09
2022-10-10T18:01:34.354Z,96672.66
2022-10-10T18:04:02.427Z,96672.34
2022-10-10T18:06:30.424Z,96673.94
2022-10-10T18:08:58.141Z,96669.13
2022-10-10T18:11:28.577Z,96673.59
2022-10-10T18:14:01.196Z,96688.59
2022-10-10T18:16:34.393Z,96685.91
2022-10-10T18:19:03.897Z,96676.63
2022-10-10T18:21:31.099Z,96674.78
2022-10-10T18:23:58.597Z,96685.56
2022-10-10T18:26:29.769Z,96687.94
2022-10-10T18:28:57.659Z,96681.03
2022-10-10T18:31:28.349Z,96678.88
2022-10-10T18:33:56.066Z,96682.81
2022-10-10T18:36:28.903Z,96681.75
2022-10-10T18:38:59.737Z,96687.47
2022-10-10T18:41:33.180Z,96680.34
2022-10-10T18:44:05.541Z,96678.22
2022-10-10T18:46:33.417Z,96685.03
2022-10-10T18:49:02.221Z,96691.09
2022-10-10T18:51:30.379Z,96684.50
2022-10-10T18:54:04.066Z,96677.63
2022-10-10T18:56:33.346Z,96686.28
2022-10-10T18:59:02.704Z,96687.91
2022-10-10T19:01:34.006Z,96695.81
2022-10-10T19:04:01.138Z,96690.56
2022-10-10T19:06:29.059Z,96687.44
2022-10-10T19:08:58.551Z,96696.94
2022-10-10T19:11:39.387Z,96690.06
2022-10-10T19:14:11.977Z,96686.88
2022-10-10T19:16:41.105Z,96668.19
2022-10-10T19:19:08.890Z,96676.38
2022-10-10T19:21:38.103Z,96681.13
2022-10-10T19:24:07.898Z,96675.56
2022-10-10T19:26:36.185Z,96672.41
2022-10-10T19:29:07.076Z,96677.13
2022-10-10T19:31:35.657Z,96667.63
2022-10-10T19:34:02.700Z,96670.53
2022-10-10T19:36:30.112Z,96666.56
2022-10-10T19:38:59.986Z,96670.75
2022-10-10T19:41:28.061Z,96662.63
2022-10-10T19:43:57.703Z,96668.94
2022-10-10T19:46:27.179Z,96664.22
2022-10-10T19:48:57.616Z,96669.22
2022-10-10T19:51:26.059Z,96666.34
2022-10-10T19:53:53.219Z,96677.41
2022-10-10T19:56:24.780Z,96671.34
2022-10-10T19:58:56.953Z,96667.63
2022-10-10T20:01:29.271Z,96670.28
2022-10-10T20:03:57.998Z,96665.81
2022-10-10T20:06:25.944Z,96661.81
2022-10-10T20:08:53.218Z,96662.78
2022-10-10T20:11:20.900Z,96670.41
2022-10-10T20:13:53.418Z,96666.41
2022-10-10T20:16:22.347Z,96668.47
2022-10-10T20:18:49.657Z,96675.28
2022-10-10T20:21:23.577Z,96675.53
2022-10-10T20:23:51.437Z,96673.34
2022-10-10T20:26:24.138Z,96667.78
2022-10-10T20:28:52.293Z,96673.59
2022-10-10T20:31:22.976Z,96678.09
2022-10-10T20:33:52.420Z,96682.09
2022-10-10T20:36:21.185Z,96690.56
2022-10-10T20:39:05.286Z,96688.44
2022-10-10T20:41:34.498Z,96687.72
2022-10-10T20:44:04.701Z,96694.81
2022-10-10T20:46:37.616Z,96695.66
2022-10-10T20:49:07.459Z,96703.81
2022-10-10T20:51:34.857Z,96689.06
2022-10-10T20:54:04.817Z,96687.75
2022-10-10T20:56:33.780Z,96689.84
2022-10-10T20:59:01.190Z,96690.34
2022-10-10T21:01:30.807Z,96689.84
2022-10-10T21:03:59.020Z,96691.94
2022-10-10T21:06:30.261Z,96692.19
2022-10-10T21:09:00.895Z,96687.72
2022-10-10T21:11:28.583Z,96687.16
2022-10-10T21:13:58.916Z,96687.41
2022-10-10T21:16:35.016Z,96686.38
2022-10-10T21:19:02.618Z,96683.97
2022-10-10T21:21:35.223Z,96676.88
2022-10-10T21:24:07.499Z,96674.22
2022-10-10T21:26:34.942Z,96676.06
2022-10-10T21:29:02.272Z,96672.16
2022-10-10T21:31:35.936Z,96673.19
2022-10-10T21:34:05.098Z,96675.81
2022-10-10T21:36:33.737Z,96674.00
2022-10-10T21:39:02.402Z,96676.81
2022-10-10T21:41:29.696Z,96670.97
2022-10-10T21:43:59.820Z,96671.97
2022-10-10T21:46:36.740Z,96675.03
2022-10-10T21:49:10.387Z,96675.19
2022-10-10T21:51:39.777Z,96677.88
2022-10-10T21:54:07.811Z,96680.50
2022-10-10T21:56:35.262Z,96681.78
2022-10-10T21:59:02.697Z,96679.94
2022-10-10T22:01:33.424Z,96678.41
2022-10-10T22:04:02.259Z,96676.03
2022-10-10T22:06:29.866Z,96680.00
2022-10-10T22:08:59.669Z,96680.31
2022-10-10T22:11:29.110Z,96679.25
2022-10-10T22:13:56.583Z,96665.06
2022-10-10T22:16:24.221Z,96671.91
2022-10-10T22:18:56.467Z,96671.66
2022-10-10T22:21:29.223Z,96662.94
2022-10-10T22:23:59.101Z,96663.47
2022-10-10T22:26:26.381Z,96665.84
2022-10-10T22:28:53.898Z,96665.84
2022-10-10T22:31:21.161Z,96667.19
2022-10-10T22:33:48.499Z,96659.03
2022-10-10T22:36:15.735Z,96661.44
2022-10-10T22:38:45.464Z,96665.38
2022-10-10T22:41:13.626Z,96664.84
2022-10-10T22:43:40.900Z,96668.28
2022-10-10T22:46:08.909Z,96658.00
2022-10-10T22:48:36.993Z,96662.22
2022-10-10T22:51:16.499Z,96649.84
2022-10-10T22:53:45.465Z,96651.69
2022-10-10T22:56:15.783Z,96654.84
2022-10-10T22:58:43.542Z,96654.84
2022-10-10T23:01:17.437Z,96648.03
2022-10-10T23:03:44.971Z,96639.06
2022-10-10T23:06:12.328Z,96635.38
2022-10-10T23:08:39.470Z,96639.38
2022-10-10T23:11:06.541Z,96636.50
2022-10-10T23:13:33.770Z,96641.97
2022-10-10T23:16:00.863Z,96632.50
2022-10-10T23:18:29.222Z,96633.53
2022-10-10T23:20:56.282Z,96637.22
2022-10-10T23:23:23.792Z,96630.66
2022-10-10T23:25:51.003Z,96629.63
2022-10-10T23:28:18.675Z,96627.25
2022-10-10T23:30:48.272Z,96624.59
2022-10-10T23:33:17.122Z,96624.03
2022-10-10T23:35:44.441Z,96623.25
2022-10-10T23:38:11.533Z,96630.88
2022-10-10T23:40:38.442Z,96627.41
2022-10-10T23:43:07.516Z,96631.06
2022-10-10T23:45:34.532Z,96629.72
2022-10-10T23:48:01.485Z,96629.97
2022-10-10T23:50:28.393Z,96626.56
2022-10-10T23:52:55.354Z,96624.97
2022-10-10T23:55:22.382Z,96620.75
2022-10-10T23:57:49.351Z,96617.56
